Monday, February 19, 2018, 5:05 AM EST
Back to Local

KDAA, Fort Belvoir

Location: Fort Belvoir, VA, United States Lat: 38.717
Local Time: 5:05 AM EST (10:05 GMT) Lon: -77.183
Time Zone: US/Eastern Elev: 68 ft

Show me the last for .
Show Decoded

2018-02-19 03:56 METAR KDAA 190856Z AUTO 00000KT 10SM OVC050 04/02 A3048 RMK AO2 SLP325 T00420019
                 58001 $ =
2018-02-19 02:56 METAR KDAA 190756Z AUTO 15004KT 10SM OVC047 04/02 A3049 RMK AO2 SLP329 T00410018
                 $ =
2018-02-19 01:56 METAR KDAA 190656Z AUTO 17003KT 10SM SCT220 03/01 A3049 RMK AO2 SLP329 T00280013
                 $ =
2018-02-19 00:56 METAR KDAA 190556Z AUTO 00000KT 10SM CLR 00/M02 A3049 RMK AO2 SLP329 T10051018
                 10051 21006 50001 $ =
2018-02-18 23:56 METAR KDAA 190456Z AUTO 00000KT 10SM CLR 00/M01 A3049 RMK AO2 SLP329 T00021014
                 401110002 $ =
2018-02-18 22:56 METAR KDAA 190356Z AUTO 00000KT 10SM CLR 01/M01 A3050 RMK AO2 SLP332 T00101011 $
                 =
2018-02-18 21:56 METAR KDAA 190256Z AUTO 00000KT 10SM CLR 02/M01 A3049 RMK AO2 SLP329 T00211010
                 53016 $ =
2018-02-18 20:56 METAR KDAA 190156Z AUTO 00000KT 10SM CLR 04/M01 A3047 RMK AO2 SLP322 T00391009 $
                 =
2018-02-18 19:56 METAR KDAA 190056Z AUTO 00000KT 10SM CLR 03/M01 A3044 RMK AO2 SLP312 T00321012 $
                 =
2018-02-18 18:56 METAR KDAA 182356Z AUTO 00000KT 10SM CLR 05/M01 A3044 RMK AO2 SLP312 T00481014
                 10111 20045 53010 $ =
2018-02-18 17:56 METAR KDAA 182256Z AUTO 00000KT 10SM CLR 08/M02 A3042 RMK AO2 SLP305 T00751023 $
                 =
2018-02-18 16:56 METAR KDAA 182156Z AUTO 00000KT 10SM CLR 11/M03 A3041 RMK AO2 SLP301 T01071030 $
                 =
2018-02-18 15:56 METAR KDAA 182056Z AUTO 28005KT 10SM CLR 11/M02 A3041 RMK AO2 SLP301 T01101024
                 55002 $ =
2018-02-18 14:56 METAR KDAA 181956Z AUTO 34003KT 10SM CLR 11/M03 A3040 RMK AO2 SLP298 T01081030 $
                 =
2018-02-18 13:56 METAR KDAA 181856Z AUTO 35003KT 10SM FEW049 10/M02 A3040 RMK AO2 SLP298
                 T01041023 $ =
2018-02-18 12:56 METAR KDAA 181756Z AUTO 00000KT 10SM CLR 10/M02 A3042 RMK AO2 SLP305 T00961024
                 10098 20003 50008 $ =
2018-02-18 11:56 METAR KDAA 181656Z AUTO 32006G18KT 10SM SCT046 09/M02 A3042 RMK AO2 SLP305
                 T00861021 $ =
2018-02-18 10:56 METAR KDAA 181556Z AUTO 31007KT 10SM FEW034 SCT049 08/01 A3041 RMK AO2 SLP302
                 T00830012 $ =
2018-02-18 09:56 METAR KDAA 181456Z AUTO 00000KT 10SM OVC050 05/03 A3039 RMK AO2 SLP295 T00460025
                 52048 $ =
2018-02-18 09:03 METAR KDAA 181403Z AUTO 17004KT 10SM FEW005 OVC049 03/02 A3036 RMK AO2 SLP285 $
                 =
2018-02-18 08:56 METAR KDAA 181356Z AUTO 00000KT 10SM OVC049 03/02 A3035 RMK AO2 SLP281 T00250015
                 $ =
2018-02-18 07:56 METAR KDAA 181256Z AUTO 00000KT 7SM OVC049 01/00 A3030 RMK AO2 SLP265 T00100003
                 $ =
2018-02-18 06:56 METAR KDAA 181156Z AUTO 00000KT 5SM BR OVC047 00/00 A3025 RMK AO2 SLP248 70030
                 T00041005 10024 20003 52043 $ =
2018-02-18 06:08 METAR KDAA 181108Z AUTO 00000KT 8SM FEW005 SCT050 00/00 A3021 RMK AO2 SLP234 $ =
2018-02-18 05:56 METAR KDAA 181056Z AUTO 00000KT 9SM BKN050 01/00 A3021 RMK AO2 SLP234 T00051005
                 $ =
2018-02-18 05:26 METAR KDAA 181026Z AUTO 00000KT 10SM SCT006 OVC050 01/00 A3018 RMK AO2 SLP224 $
                 =

Support USWX by starting your Amazon purchase here.